Tropical Cyclones
[Index]
Main Index Home Page Stock Weather Photos Extreme Storms Discussion Storm News and Storm Chasing Reports Tropical Cyclones / Hurricanes / Typhoons Weather Data and Links Wild Fires / Bushfires Weather Observation Techniques Weather Picture Catalogue Tornado Pictures and Reports Stock Video Footage and DVDs for sale
Season 1996-1997 Tropical Cyclone NICHOLAS Track Map
Season 1996-1997 Summaries: [BoM-AU] [JTWC-AU] [JTWC-SIO] [JTWC-SPAC] [JTWC-SH]
<<- Previous TC | BoM 1996-1997 Season | Next TC ->>

click for intensity scale information  Lat/long Grid: Show Hide

 Date Labels: Show Hide

Bureau of Meteorology Tropical Cyclone Data

Name: NICHOLAS
Number: 794 / 199697_03

12 Dec 1996 07:00 UTC to 16 Dec 1996 07:00 UTC

    date/time    lat    long    hPa   cat  kts
1996-12-12 07   11.0   124.5   1002         23          
1996-12-12 13   11.5   124.2   1000         27          
1996-12-12 19   12.0   123.9   1000         27          
1996-12-12 22   12.3   123.9   1000         27          
1996-12-13 01   12.7   123.8    998         29          
1996-12-13 04   13.0   123.8    998         29          
1996-12-13 07   13.3   123.7    996         33          
1996-12-13 10   13.6   123.6    996         33          
1996-12-13 13   13.9   123.6    996         33          
1996-12-13 16   14.2   123.5    994    1    35          
1996-12-13 19   14.4   123.5    992    1    39          
1996-12-13 22   14.7   123.5    990    1    41          
1996-12-14 01   14.9   123.5    988    1    45          
1996-12-14 04   15.2   123.5    985    2    47          
1996-12-14 07   15.5   123.5    985    2    47          
1996-12-14 10   15.9   123.5    985    2    47          
1996-12-14 13   16.3   123.5    988    1    45          
1996-12-14 16   16.6   123.5    990    1    41          
1996-12-14 19   16.9   123.5    995    1    35          
1996-12-14 22   17.2   123.5    995    1    35          
1996-12-15 01   17.4   123.5    995    1    35          
1996-12-15 07   17.7   123.5    995    1    35          
1996-12-15 13   18.1   123.6    998         29          
1996-12-15 19   18.6   123.7    998         29          
1996-12-16 01   19.1   123.8   1000         27          
1996-12-16 07   19.7   123.9   1000         27          
Winds are 10-min average.

Tropical cyclone tracks developed by Michael Bath using data from the Bureau of Meteorology and Google Maps.


[Australian Severe Weather index] [Copyright Notice] [Email Contacts] [Search This Site] [Privacy Policy]
Document: tropical_cyclone_nicholas.htm Updated: 30 May 2013